createdAt,value
2019-03-29T00:02:18.712Z,63.48
2019-03-29T00:04:49.907Z,63.28
2019-03-29T00:07:21.070Z,65.70
2019-03-29T00:09:52.231Z,46.55
2019-03-29T00:12:23.414Z,53.85
2019-03-29T00:14:54.607Z,40.83
2019-03-29T00:17:25.792Z,47.40
2019-03-29T00:19:56.978Z,28.73
2019-03-29T00:22:28.145Z,25.95
2019-03-29T00:24:59.327Z,26.35
2019-03-29T00:27:30.540Z,40.45
2019-03-29T00:30:01.798Z,53.42
2019-03-29T00:32:32.977Z,53.98
2019-03-29T00:35:04.234Z,59.77
2019-03-29T00:37:35.404Z,60.40
2019-03-29T00:40:07.286Z,54.60
2019-03-29T00:42:38.500Z,54.70
2019-03-29T00:45:09.804Z,54.13
2019-03-29T00:47:40.994Z,30.27
2019-03-29T00:50:12.286Z,20.10
2019-03-29T00:52:43.880Z,22.32
2019-03-29T00:55:15.041Z,21.57
2019-03-29T00:57:46.220Z,28.55
2019-03-29T01:00:17.654Z,24.47
2019-03-29T01:02:48.801Z,27.65
2019-03-29T01:05:20.219Z,30.65
2019-03-29T01:07:52.154Z,26.40
2019-03-29T01:10:23.313Z,23.52
2019-03-29T01:12:54.560Z,26.48
2019-03-29T01:15:25.737Z,21.77
2019-03-29T01:17:56.922Z,25.25
2019-03-29T01:20:28.175Z,31.97
2019-03-29T01:22:59.413Z,44.38
2019-03-29T01:25:30.575Z,32.38
2019-03-29T01:28:03.185Z,28.15
2019-03-29T01:30:34.325Z,27.35
2019-03-29T01:33:05.481Z,31.48
2019-03-29T01:35:36.695Z,28.42
2019-03-29T01:38:20.736Z,52.95
2019-03-29T01:40:40.741Z,43.60
2019-03-29T01:43:11.906Z,28.40
2019-03-29T01:45:43.098Z,32.00
2019-03-29T01:48:14.254Z,34.95
2019-03-29T01:50:45.445Z,30.37
2019-03-29T01:53:16.599Z,29.50
2019-03-29T01:55:48.758Z,31.17
2019-03-29T01:58:20.298Z,35.90
2019-03-29T02:00:51.461Z,26.68
2019-03-29T02:03:22.638Z,25.37
2019-03-29T02:05:53.921Z,25.77
2019-03-29T02:08:35.191Z,18.70
2019-03-29T02:10:57.998Z,31.30
2019-03-29T02:13:29.226Z,31.33
2019-03-29T02:16:00.433Z,18.57
2019-03-29T02:18:31.656Z,24.52
2019-03-29T02:21:02.876Z,25.97
2019-03-29T02:23:34.036Z,29.07
2019-03-29T02:26:05.265Z,25.05
2019-03-29T02:28:36.438Z,30.15
2019-03-29T02:31:07.627Z,30.25
2019-03-29T02:33:38.809Z,28.05
2019-03-29T02:36:10.049Z,32.73
2019-03-29T02:38:54.967Z,30.50
2019-03-29T02:41:14.171Z,30.17
2019-03-29T02:43:45.384Z,26.93
2019-03-29T02:46:17.440Z,24.77
2019-03-29T02:48:48.673Z,15.63
2019-03-29T02:51:19.841Z,13.80
2019-03-29T02:53:51.006Z,78.52
2019-03-29T02:56:22.222Z,78.83
2019-03-29T02:58:53.387Z,72.08
2019-03-29T03:01:24.548Z,75.72
2019-03-29T03:03:55.740Z,151.85
2019-03-29T03:06:26.909Z,287.98
2019-03-29T03:09:12.337Z,242.35
2019-03-29T03:11:31.039Z,292.75
2019-03-29T03:14:02.187Z,203.67
2019-03-29T03:16:33.344Z,273.57
2019-03-29T03:19:04.613Z,232.52
2019-03-29T03:21:35.781Z,236.32
2019-03-29T03:24:07.049Z,298.68
2019-03-29T03:26:38.276Z,327.62
2019-03-29T03:29:09.624Z,247.60
2019-03-29T03:31:40.805Z,248.93
2019-03-29T03:34:11.998Z,204.05
2019-03-29T03:36:43.158Z,192.25
2019-03-29T03:39:30.477Z,229.60
2019-03-29T03:41:47.226Z,311.55
2019-03-29T03:44:18.399Z,333.65
2019-03-29T03:46:49.567Z,320.10
2019-03-29T03:49:20.759Z,324.85
2019-03-29T03:51:51.927Z,257.60
2019-03-29T03:54:23.704Z,254.13
2019-03-29T03:56:56.196Z,269.57
2019-03-29T03:59:30.034Z,313.32
2019-03-29T04:02:01.207Z,268.90
2019-03-29T04:04:32.405Z,208.38
2019-03-29T04:07:03.628Z,203.40
2019-03-29T04:09:48.595Z,197.47
2019-03-29T04:12:07.776Z,181.90
2019-03-29T04:14:38.964Z,157.55
2019-03-29T04:17:10.125Z,199.82
2019-03-29T04:19:41.289Z,238.40
2019-03-29T04:22:12.476Z,197.57
2019-03-29T04:24:43.729Z,226.05
2019-03-29T04:27:14.891Z,223.43
2019-03-29T04:29:46.105Z,209.27
2019-03-29T04:32:17.269Z,139.90
2019-03-29T04:34:48.455Z,104.65
2019-03-29T04:37:19.651Z,161.73
2019-03-29T04:40:06.303Z,189.07
2019-03-29T04:42:23.780Z,137.28
2019-03-29T04:44:54.950Z,73.02
2019-03-29T04:47:26.113Z,59.23
2019-03-29T04:49:57.394Z,53.40
2019-03-29T04:52:28.700Z,65.28
2019-03-29T04:55:00.590Z,64.03
2019-03-29T04:57:31.887Z,64.15
2019-03-29T05:00:03.142Z,51.33
2019-03-29T05:02:34.429Z,45.85
2019-03-29T05:05:05.638Z,47.58
2019-03-29T05:07:37.304Z,39.00
2019-03-29T05:10:20.230Z,41.85
2019-03-29T05:12:42.214Z,47.67
2019-03-29T05:15:13.598Z,38.60
2019-03-29T05:17:44.825Z,56.65
2019-03-29T05:20:16.018Z,36.63
2019-03-29T05:22:47.184Z,151.80
2019-03-29T05:25:18.369Z,33.33
2019-03-29T05:27:51.123Z,26.75
2019-03-29T05:30:22.464Z,30.37
2019-03-29T05:32:53.748Z,35.55
2019-03-29T05:35:24.976Z,70.97
2019-03-29T05:37:56.163Z,141.92
2019-03-29T05:40:34.826Z,63.83
2019-03-29T05:43:00.253Z,98.00
2019-03-29T05:45:31.780Z,125.62
2019-03-29T05:48:02.999Z,141.50
2019-03-29T05:50:36.782Z,150.00
2019-03-29T05:53:07.794Z,125.80
2019-03-29T05:55:39.002Z,78.78
2019-03-29T05:58:10.186Z,62.73
2019-03-29T06:00:41.389Z,55.85
2019-03-29T06:03:12.750Z,70.57
2019-03-29T06:05:44.033Z,83.55
2019-03-29T06:08:15.322Z,103.90
2019-03-29T06:10:49.416Z,54.93
2019-03-29T06:13:19.970Z,44.75
2019-03-29T06:15:51.238Z,39.33
2019-03-29T06:18:22.505Z,42.20
2019-03-29T06:20:53.701Z,48.05
2019-03-29T06:23:24.927Z,44.98
2019-03-29T06:25:56.139Z,43.70
2019-03-29T06:28:29.878Z,50.38
2019-03-29T06:31:00.340Z,50.05
2019-03-29T06:33:31.770Z,54.88
2019-03-29T06:36:04.556Z,52.65
2019-03-29T06:38:37.790Z,64.45
2019-03-29T06:41:09.063Z,62.10
2019-03-29T06:43:40.254Z,62.50
2019-03-29T06:46:11.441Z,83.03
2019-03-29T06:48:42.641Z,75.22
2019-03-29T06:51:13.905Z,70.32
2019-03-29T06:53:45.098Z,81.20
2019-03-29T06:56:16.322Z,84.75
2019-03-29T06:58:47.538Z,90.28
2019-03-29T07:01:18.850Z,77.03
2019-03-29T07:03:50.080Z,79.65
2019-03-29T07:06:21.310Z,88.67
2019-03-29T07:08:52.526Z,91.50
2019-03-29T07:11:23.739Z,93.85
2019-03-29T07:13:57.798Z,94.35
2019-03-29T07:16:28.144Z,100.05
2019-03-29T07:18:59.326Z,106.40
2019-03-29T07:21:30.575Z,102.97
2019-03-29T07:24:01.797Z,104.78
2019-03-29T07:26:32.978Z,109.12
2019-03-29T07:29:04.256Z,101.67
2019-03-29T07:31:35.556Z,108.17
2019-03-29T07:34:06.872Z,110.25
2019-03-29T07:36:38.073Z,116.57
2019-03-29T07:39:09.471Z,115.08
2019-03-29T07:41:40.635Z,102.42
2019-03-29T07:44:12.077Z,102.27
2019-03-29T07:46:43.283Z,111.45
2019-03-29T07:49:14.520Z,103.58
2019-03-29T07:51:45.748Z,109.12
2019-03-29T07:54:17.120Z,102.80
2019-03-29T07:56:48.471Z,99.15
2019-03-29T07:59:19.707Z,101.65
2019-03-29T08:01:50.990Z,102.75
2019-03-29T08:04:23.859Z,116.37
2019-03-29T08:06:55.708Z,116.22
2019-03-29T08:09:27.423Z,108.57
2019-03-29T08:11:59.268Z,118.53
2019-03-29T08:14:31.372Z,101.02
2019-03-29T08:17:02.558Z,114.75
2019-03-29T08:19:36.997Z,94.15
2019-03-29T08:22:06.765Z,120.80
2019-03-29T08:24:38.005Z,110.25
2019-03-29T08:27:09.265Z,108.45
2019-03-29T08:29:40.592Z,125.80
2019-03-29T08:32:11.798Z,111.65
2019-03-29T08:34:43.019Z,98.03
2019-03-29T08:37:14.351Z,114.90
2019-03-29T08:39:45.555Z,111.20
2019-03-29T08:42:18.508Z,111.15
2019-03-29T08:44:49.751Z,104.75
2019-03-29T08:47:20.940Z,110.70
2019-03-29T08:49:52.185Z,108.10
2019-03-29T08:52:23.502Z,108.12
2019-03-29T08:54:54.771Z,107.15
2019-03-29T08:57:25.963Z,101.53
2019-03-29T08:59:57.163Z,103.95
2019-03-29T09:02:28.544Z,93.50
2019-03-29T09:04:59.742Z,93.75
2019-03-29T09:07:44.043Z,90.25
2019-03-29T09:10:05.737Z,84.87
2019-03-29T09:12:36.948Z,98.70
2019-03-29T09:15:08.316Z,100.42
2019-03-29T09:17:39.585Z,91.87
2019-03-29T09:20:10.913Z,83.58
2019-03-29T09:22:42.150Z,78.22
2019-03-29T09:25:13.323Z,73.65
2019-03-29T09:27:44.590Z,78.92
2019-03-29T09:30:15.819Z,74.62
2019-03-29T09:32:47.064Z,67.15
2019-03-29T09:35:18.307Z,60.08
2019-03-29T09:37:49.637Z,62.30
2019-03-29T09:40:20.919Z,66.02
2019-03-29T09:43:06.823Z,59.05
2019-03-29T09:45:25.404Z,58.75
2019-03-29T09:47:56.682Z,54.63
2019-03-29T09:50:27.886Z,58.28
2019-03-29T10:55:36.427Z,25.60
2019-03-29T11:13:11.956Z,29.35
2019-03-29T11:15:36.087Z,28.27
2019-03-29T11:18:09.131Z,25.50
2019-03-29T11:20:40.813Z,25.82
2019-03-29T11:23:12.297Z,28.40
2019-03-29T11:31:02.450Z,25.12
2019-03-29T11:33:33.781Z,23.70
2019-03-29T11:36:05.055Z,24.65
2019-03-29T11:38:36.273Z,24.95
2019-03-29T11:41:07.445Z,24.92
2019-03-29T11:43:38.621Z,23.52
2019-03-29T11:46:09.871Z,24.15
2019-03-29T11:48:41.096Z,22.37
2019-03-29T11:51:19.307Z,21.15
2019-03-29T11:53:45.775Z,26.30
2019-03-29T11:56:17.006Z,23.30
2019-03-29T11:58:48.181Z,22.85
2019-03-29T12:01:19.453Z,24.50
2019-03-29T12:03:50.594Z,22.27
2019-03-29T12:06:21.851Z,24.70
2019-03-29T12:08:53.108Z,21.68
2019-03-29T12:11:24.455Z,22.80
2019-03-29T12:13:55.650Z,23.92
2019-03-29T12:16:26.874Z,22.02
2019-03-29T12:18:58.145Z,25.62
2019-03-29T12:21:29.422Z,23.62
2019-03-29T12:24:00.655Z,24.85
2019-03-29T12:26:31.939Z,26.50
2019-03-29T12:29:03.267Z,24.80
2019-03-29T12:31:34.559Z,22.32
2019-03-29T12:34:05.857Z,19.55
2019-03-29T12:36:37.181Z,22.13
2019-03-29T12:39:09.192Z,20.45
2019-03-29T12:41:40.540Z,19.55
2019-03-29T12:44:11.847Z,20.85
2019-03-29T12:46:43.132Z,21.27
2019-03-29T12:49:14.428Z,18.57
2019-03-29T12:51:46.833Z,19.02
2019-03-29T12:54:18.714Z,18.55
2019-03-29T12:56:49.990Z,18.92
2019-03-29T12:59:21.228Z,19.10
2019-03-29T13:01:52.632Z,19.05
2019-03-29T13:04:23.938Z,20.17
2019-03-29T13:06:55.257Z,19.00
2019-03-29T13:09:26.549Z,18.60
2019-03-29T13:11:57.863Z,20.77
2019-03-29T13:14:29.182Z,23.15
2019-03-29T13:17:02.790Z,20.48
2019-03-29T13:19:33.316Z,19.57
2019-03-29T13:22:06.159Z,23.60
2019-03-29T13:24:37.325Z,19.07
2019-03-29T13:27:08.507Z,16.23
2019-03-29T13:29:39.678Z,20.12
2019-03-29T13:32:10.991Z,14.38
2019-03-29T13:34:42.236Z,15.90
2019-03-29T13:37:13.432Z,18.07
2019-03-29T13:39:44.753Z,19.32
2019-03-29T13:42:15.953Z,19.60
2019-03-29T13:44:47.343Z,24.47
2019-03-29T13:47:18.555Z,19.57
2019-03-29T13:49:49.824Z,17.42
2019-03-29T13:52:21.083Z,20.23
2019-03-29T13:54:52.391Z,21.12
2019-03-29T13:57:23.685Z,20.40
2019-03-29T13:59:54.891Z,24.07
2019-03-29T14:02:26.165Z,20.55
2019-03-29T14:04:57.411Z,22.42
2019-03-29T14:07:28.650Z,20.17
2019-03-29T14:09:59.890Z,19.85
2019-03-29T14:12:31.191Z,17.50
2019-03-29T14:15:02.390Z,19.98
2019-03-29T14:17:33.679Z,16.87
2019-03-29T14:20:05.122Z,19.10
2019-03-29T14:22:36.332Z,16.80
2019-03-29T14:25:08.304Z,17.50
2019-03-29T14:27:39.551Z,17.52
2019-03-29T14:30:11.227Z,16.23
2019-03-29T14:32:42.535Z,15.43
2019-03-29T14:35:13.897Z,18.17
2019-03-29T14:37:45.159Z,18.85
2019-03-29T14:40:16.642Z,19.12
2019-03-29T14:42:47.894Z,14.73
2019-03-29T14:45:19.105Z,15.90
2019-03-29T14:47:50.415Z,16.23
2019-03-29T14:50:21.742Z,19.95
2019-03-29T14:52:52.936Z,17.95
2019-03-29T14:55:24.108Z,18.37
2019-03-29T14:57:55.517Z,18.92
2019-03-29T15:00:48.583Z,18.12
2019-03-29T15:03:19.249Z,21.00
2019-03-29T15:05:50.443Z,20.88
2019-03-29T15:08:21.623Z,19.48
2019-03-29T15:10:53.042Z,17.45
2019-03-29T15:13:24.543Z,21.07
2019-03-29T15:15:55.855Z,19.40
2019-03-29T15:18:27.102Z,17.35
2019-03-29T15:20:58.374Z,18.50
2019-03-29T15:23:29.654Z,19.48
2019-03-29T15:26:01.004Z,17.95
2019-03-29T15:28:32.204Z,22.00
2019-03-29T15:31:03.477Z,18.12
2019-03-29T15:33:34.764Z,19.57
2019-03-29T15:36:06.012Z,20.10
2019-03-29T15:38:37.285Z,15.83
2019-03-29T15:41:08.707Z,17.80
2019-03-29T15:43:40.013Z,19.32
2019-03-29T15:46:11.250Z,20.52
2019-03-29T15:48:42.615Z,19.77
2019-03-29T15:51:13.810Z,20.52
2019-03-29T15:53:45.004Z,21.95
2019-03-29T15:56:16.366Z,20.35
2019-03-29T15:58:47.608Z,20.15
2019-03-29T16:01:18.775Z,19.30
2019-03-29T16:03:49.981Z,20.40
2019-03-29T16:06:21.158Z,20.37
2019-03-29T16:08:52.389Z,21.30
2019-03-29T16:11:23.582Z,22.45
2019-03-29T16:13:54.819Z,23.85
2019-03-29T16:16:26.052Z,19.73
2019-03-29T16:18:57.553Z,18.20
2019-03-29T16:21:28.729Z,19.82
2019-03-29T16:24:00.007Z,19.02
2019-03-29T16:26:31.218Z,21.07
2019-03-29T16:29:02.395Z,17.80
2019-03-29T16:31:33.738Z,16.37
2019-03-29T16:34:04.976Z,17.52
2019-03-29T16:36:36.318Z,19.92
2019-03-29T16:39:09.516Z,20.30
2019-03-29T16:41:40.839Z,21.68
2019-03-29T16:44:12.102Z,21.10
2019-03-29T16:46:43.354Z,23.15
2019-03-29T16:49:14.568Z,19.90
2019-03-29T16:51:45.765Z,18.52
2019-03-29T16:54:17.027Z,20.48
2019-03-29T16:56:48.273Z,16.73
2019-03-29T16:59:19.572Z,19.92
2019-03-29T17:01:51.393Z,22.05
2019-03-29T17:04:23.428Z,20.20
2019-03-29T17:06:54.719Z,22.10
2019-03-29T17:09:26.009Z,20.12
2019-03-29T17:11:57.219Z,20.32
2019-03-29T17:14:28.494Z,18.45
2019-03-29T17:16:59.713Z,18.25
2019-03-29T17:19:31.087Z,17.23
2019-03-29T17:22:02.305Z,17.02
2019-03-29T17:24:33.608Z,19.10
2019-03-29T17:27:04.866Z,16.48
2019-03-29T17:29:36.125Z,17.90
2019-03-29T17:32:07.308Z,14.38
2019-03-29T17:34:39.623Z,16.20
2019-03-29T17:37:10.884Z,16.67
2019-03-29T17:39:42.125Z,17.98
2019-03-29T17:42:13.445Z,17.23
2019-03-29T17:44:44.714Z,19.20
2019-03-29T17:47:15.992Z,17.92
2019-03-29T17:49:47.204Z,17.80
2019-03-29T17:52:18.527Z,19.02
2019-03-29T17:54:49.826Z,20.15
2019-03-29T17:57:21.405Z,20.15
2019-03-29T17:59:52.632Z,18.75
2019-03-29T18:02:23.913Z,21.60
2019-03-29T18:04:55.172Z,26.90
2019-03-29T18:07:26.472Z,22.05
2019-03-29T18:09:57.788Z,54.20
2019-03-29T18:12:29.098Z,70.42
2019-03-29T18:15:00.433Z,73.15
2019-03-29T18:17:31.721Z,79.50
2019-03-29T18:20:02.947Z,88.75
2019-03-29T18:22:34.223Z,88.58
2019-03-29T18:25:05.551Z,92.57
2019-03-29T18:27:36.899Z,87.78
2019-03-29T18:30:10.352Z,94.97
2019-03-29T18:32:41.545Z,91.55
2019-03-29T18:35:12.919Z,100.05
2019-03-29T18:37:44.792Z,93.55
2019-03-29T18:40:27.855Z,94.92
2019-03-29T18:42:59.222Z,98.37
2019-03-29T18:45:30.421Z,99.75
2019-03-29T18:48:01.727Z,95.75
2019-03-29T18:50:33.014Z,98.55
2019-03-29T18:53:04.206Z,99.37
2019-03-29T18:55:35.415Z,100.12
2019-03-29T18:58:06.637Z,101.18
2019-03-29T19:00:37.969Z,106.27
2019-03-29T19:03:11.843Z,107.72
2019-03-29T19:05:42.098Z,105.27
2019-03-29T19:08:13.266Z,105.85
2019-03-29T19:10:44.498Z,106.92
2019-03-29T19:13:15.719Z,117.70
2019-03-29T19:15:47.032Z,108.70
2019-03-29T19:18:18.306Z,107.60
2019-03-29T19:20:49.599Z,106.80
2019-03-29T19:23:20.834Z,110.40
2019-03-29T19:25:52.261Z,109.35
2019-03-29T19:28:23.487Z,105.20
2019-03-29T19:30:54.685Z,113.47
2019-03-29T19:33:26.094Z,110.20
2019-03-29T19:35:57.383Z,113.95
2019-03-29T19:38:28.684Z,116.73
2019-03-29T19:40:59.877Z,122.20
2019-03-29T19:43:31.125Z,128.10
2019-03-29T19:46:02.346Z,120.33
2019-03-29T19:48:33.607Z,120.70
2019-03-29T19:51:05.003Z,128.38
2019-03-29T19:53:36.212Z,128.82
2019-03-29T19:56:07.482Z,130.30
2019-03-29T19:58:38.723Z,131.70
2019-03-29T20:01:09.940Z,133.80
2019-03-29T20:03:41.191Z,126.82
2019-03-29T20:06:12.422Z,135.72
2019-03-29T20:08:43.592Z,142.40
2019-03-29T20:11:14.801Z,145.80
2019-03-29T20:13:46.155Z,144.47
2019-03-29T20:16:17.335Z,136.47
2019-03-29T20:18:48.531Z,140.45
2019-03-29T20:21:19.874Z,138.85
2019-03-29T20:23:51.094Z,143.52
2019-03-29T20:26:22.299Z,143.37
2019-03-29T20:28:53.532Z,146.05
2019-03-29T20:31:24.741Z,146.80
2019-03-29T20:33:55.922Z,142.45
2019-03-29T20:36:27.213Z,143.45
2019-03-29T20:38:58.476Z,134.10
2019-03-29T20:41:30.059Z,141.90
2019-03-29T20:44:01.264Z,150.22
2019-03-29T20:46:32.457Z,149.80
2019-03-29T20:49:03.706Z,140.60
2019-03-29T20:51:34.915Z,144.43
2019-03-29T20:54:06.100Z,141.43
2019-03-29T20:56:37.269Z,148.50
2019-03-29T20:59:09.426Z,154.75
2019-03-29T21:01:40.586Z,148.30
2019-03-29T21:04:11.751Z,142.37
2019-03-29T21:06:42.938Z,139.03
2019-03-29T21:09:15.221Z,147.43
2019-03-29T21:11:46.420Z,144.20
2019-03-29T21:14:17.619Z,140.97
2019-03-29T21:16:48.786Z,139.75
2019-03-29T21:19:19.972Z,146.50
2019-03-29T21:21:51.214Z,141.10
2019-03-29T21:24:22.381Z,150.97
2019-03-29T21:26:53.632Z,145.38
2019-03-29T21:29:24.839Z,138.35
2019-03-29T21:31:56.003Z,139.70
2019-03-29T21:34:27.232Z,147.40
2019-03-29T21:36:58.448Z,139.43
2019-03-29T21:39:31.241Z,143.85
2019-03-29T21:42:02.615Z,140.20
2019-03-29T21:44:33.827Z,138.70
2019-03-29T21:47:05.018Z,148.60
2019-03-29T21:49:36.204Z,153.68
2019-03-29T21:52:07.372Z,146.68
2019-03-29T21:54:38.819Z,145.02
2019-03-29T21:57:10.119Z,141.77
2019-03-29T21:59:41.282Z,147.30
2019-03-29T22:02:12.460Z,143.15
2019-03-29T22:04:43.680Z,139.68
2019-03-29T22:07:14.890Z,139.20
2019-03-29T22:09:46.089Z,144.30
2019-03-29T22:12:17.299Z,136.95
2019-03-29T22:14:48.492Z,134.22
2019-03-29T22:17:19.780Z,131.87
2019-03-29T22:19:50.992Z,135.70
2019-03-29T22:22:22.156Z,136.07
2019-03-29T22:24:53.359Z,131.57
2019-03-29T22:27:24.602Z,133.10
2019-03-29T22:29:55.776Z,118.82
2019-03-29T22:32:26.942Z,122.82
2019-03-29T22:34:58.150Z,119.97
2019-03-29T22:37:29.329Z,119.22
2019-03-29T22:40:00.950Z,124.35
2019-03-29T22:42:32.255Z,128.42
2019-03-29T22:45:03.479Z,127.17
2019-03-29T22:47:34.735Z,116.97
2019-03-29T22:50:06.339Z,124.30
2019-03-29T22:52:37.585Z,123.55
2019-03-29T22:55:08.979Z,119.35
2019-03-29T22:57:40.215Z,120.55
2019-03-29T23:00:21.331Z,113.65
2019-03-29T23:02:52.663Z,84.37
2019-03-29T23:05:23.945Z,121.80
2019-03-29T23:07:55.155Z,126.78
2019-03-29T23:10:26.386Z,116.95
2019-03-29T23:12:57.758Z,116.45
2019-03-29T23:15:28.957Z,125.25
2019-03-29T23:18:00.205Z,128.57
2019-03-29T23:20:31.404Z,119.17
2019-03-29T23:23:02.578Z,117.95
2019-03-29T23:25:33.802Z,129.15
2019-03-29T23:28:04.997Z,122.40
2019-03-29T23:30:36.194Z,106.27
2019-03-29T23:33:07.448Z,102.30
2019-03-29T23:35:38.642Z,118.33
2019-03-29T23:38:09.828Z,131.63
2019-03-29T23:40:41.337Z,128.40
2019-03-29T23:43:12.542Z,115.67
2019-03-29T23:45:43.718Z,119.02
2019-03-29T23:48:14.935Z,129.18
2019-03-29T23:50:46.105Z,121.02
2019-03-29T23:53:17.275Z,128.82
2019-03-29T23:55:48.480Z,123.75
2019-03-29T23:58:19.663Z,111.35
